createdAt,value
2018-11-22T12:17:33.285Z,100773.66
2018-11-22T12:20:01.925Z,100776.80
2018-11-22T12:22:30.476Z,100776.80
2018-11-22T12:24:59.084Z,100776.66
2018-11-22T12:27:27.642Z,100771.34
2018-11-22T12:29:56.254Z,100777.17
2018-11-22T12:32:30.056Z,100770.41
2018-11-22T12:35:00.182Z,100769.80
2018-11-22T12:37:43.338Z,100768.34
2018-11-22T12:40:12.079Z,100771.04
2018-11-22T12:42:40.664Z,100768.16
2018-11-22T12:45:10.166Z,100770.86
2018-11-22T12:47:38.782Z,100767.57
2018-11-22T12:50:09.202Z,100763.80
2018-11-22T12:52:37.825Z,100763.14
2018-11-22T12:55:08.353Z,100764.56
2018-11-22T12:57:36.882Z,100757.11
2018-11-22T13:00:06.808Z,100758.43
2018-11-22T13:02:35.435Z,100757.95
2018-11-22T13:05:04.067Z,100758.36
2018-11-22T13:07:32.654Z,100759.36
2018-11-22T13:10:01.251Z,100762.48
2018-11-22T13:12:29.803Z,100761.72
2018-11-22T13:14:58.347Z,100763.22
2018-11-22T13:17:27.242Z,100759.93
2018-11-22T13:19:55.852Z,100761.63
2018-11-22T13:22:24.399Z,100762.12
2018-11-22T13:24:52.938Z,100773.15
2018-11-22T13:27:21.480Z,100773.59
2018-11-22T13:29:50.076Z,100776.86
2018-11-22T13:32:21.543Z,100768.32
2018-11-22T13:34:47.459Z,100771.58
2018-11-22T13:37:16.025Z,100781.82
2018-11-22T13:39:44.799Z,100779.05
2018-11-22T13:42:13.384Z,100779.56
2018-11-22T13:44:41.920Z,100773.59
2018-11-22T13:47:10.471Z,100778.80
2018-11-22T13:49:39.079Z,100779.31
2018-11-22T13:52:07.670Z,100781.59
2018-11-22T13:54:36.250Z,100776.47
2018-11-22T13:57:04.803Z,100766.89
2018-11-22T13:59:33.350Z,100771.05
2018-11-22T14:02:01.904Z,100769.05
2018-11-22T14:04:30.470Z,100769.53
2018-11-22T14:06:59.078Z,100763.77
2018-11-22T14:09:27.634Z,100768.21
2018-11-22T14:11:56.243Z,100761.97
2018-11-22T14:14:24.884Z,100771.41
2018-11-22T14:16:53.449Z,100769.15
2018-11-22T14:19:21.993Z,100764.47
2018-11-22T14:21:50.534Z,100771.27
2018-11-22T14:24:19.182Z,100765.44
2018-11-22T14:26:47.825Z,100765.27
2018-11-22T14:29:20.484Z,100759.03
2018-11-22T14:31:49.028Z,100767.62
2018-11-22T14:34:17.710Z,100762.43
2018-11-22T14:36:46.299Z,100765.27
2018-11-22T14:39:14.901Z,100764.06
2018-11-22T14:41:43.495Z,100766.03
2018-11-22T14:44:12.026Z,100768.29
2018-11-22T14:46:40.579Z,100770.48
2018-11-22T14:49:09.175Z,100763.33
2018-11-22T14:51:41.478Z,100760.48
2018-11-22T14:54:10.120Z,100759.62
2018-11-22T14:56:38.726Z,100762.01
2018-11-22T14:59:07.376Z,100763.22
2018-11-22T15:01:35.923Z,100761.34
2018-11-22T15:04:05.068Z,100765.30
2018-11-22T15:06:33.665Z,100762.66
2018-11-22T15:09:02.228Z,100760.59
2018-11-22T15:11:30.776Z,100763.12
2018-11-22T15:13:59.343Z,100765.78
2018-11-22T15:16:27.912Z,100770.95
2018-11-22T15:18:56.531Z,100763.32
2018-11-22T15:21:25.120Z,100770.70
2018-11-22T15:23:53.642Z,100765.20
2018-11-22T15:26:22.201Z,100769.42
2018-11-22T15:28:50.930Z,100766.92
2018-11-22T15:31:19.496Z,100762.86
2018-11-22T15:33:48.039Z,100763.24
2018-11-22T15:36:16.646Z,100767.00
2018-11-22T15:38:45.195Z,100771.55
2018-11-22T15:41:13.810Z,100769.88
2018-11-22T15:43:42.372Z,100770.02
2018-11-22T15:46:10.938Z,100774.66
2018-11-22T15:48:39.502Z,100771.05
2018-11-22T15:51:08.066Z,100771.05
2018-11-22T15:53:36.690Z,100775.98
2018-11-22T15:56:05.295Z,100773.77
2018-11-22T15:58:33.859Z,100777.61
2018-11-22T16:01:02.489Z,100779.38
2018-11-22T16:03:31.104Z,100784.31
2018-11-22T16:05:59.642Z,100779.17
2018-11-22T16:08:28.183Z,100783.36
2018-11-22T16:10:56.804Z,100784.61
2018-11-22T16:13:25.999Z,100780.55
2018-11-22T16:15:55.271Z,100779.13
2018-11-22T16:18:23.839Z,100788.56
2018-11-22T16:20:52.406Z,100788.14
2018-11-22T16:23:20.970Z,100786.90
2018-11-22T16:25:49.865Z,100788.46
2018-11-22T16:28:18.484Z,100781.59
2018-11-22T16:30:47.163Z,100780.63
2018-11-22T16:33:15.753Z,100779.59
2018-11-22T16:35:44.335Z,100779.94
2018-11-22T16:38:12.967Z,100783.05
2018-11-22T16:40:41.617Z,100777.92
2018-11-22T16:43:10.214Z,100773.00
2018-11-22T16:45:39.263Z,100780.98
2018-11-22T16:48:09.910Z,100780.28
2018-11-22T16:50:39.735Z,100788.56
2018-11-22T16:53:08.850Z,100783.30
2018-11-22T16:55:37.401Z,100782.46
2018-11-22T16:58:06.740Z,100785.45
2018-11-22T17:00:36.518Z,100784.12
2018-11-22T17:03:09.777Z,100781.73
2018-11-22T17:05:38.504Z,100781.95
2018-11-22T17:08:07.745Z,100786.17
2018-11-22T17:10:36.754Z,100777.54
2018-11-22T17:13:05.924Z,100777.78
2018-11-22T17:15:35.749Z,100777.16
2018-11-22T17:18:04.996Z,100772.69
2018-11-22T17:20:33.949Z,100768.95
2018-11-22T17:23:03.027Z,100765.13
2018-11-22T17:25:32.922Z,100779.66
2018-11-22T17:28:05.931Z,100775.50
2018-11-22T17:30:36.123Z,100783.61
2018-11-22T17:33:05.147Z,100776.95
2018-11-22T17:35:33.955Z,100779.69
2018-11-22T17:38:03.924Z,100781.73
2018-11-22T17:40:35.126Z,100783.89
2018-11-22T17:43:03.783Z,100782.64
2018-11-22T17:45:33.912Z,100786.88
2018-11-22T17:48:02.848Z,100782.78
2018-11-22T17:50:33.922Z,100784.55
2018-11-22T17:53:02.813Z,100789.83
2018-11-22T17:55:32.495Z,100791.36
2018-11-22T17:58:01.731Z,100789.93
2018-11-22T18:00:36.819Z,100793.32
2018-11-22T18:03:06.110Z,100786.08
2018-11-22T18:05:34.967Z,100795.09
2018-11-22T18:08:03.583Z,100785.38
2018-11-22T18:10:34.458Z,100779.70
2018-11-22T18:13:03.074Z,100783.52
2018-11-22T18:15:34.295Z,100793.67
2018-11-22T18:18:02.858Z,100787.27
2018-11-22T18:20:32.295Z,100782.65
2018-11-22T18:23:01.752Z,100779.53
2018-11-22T18:25:31.623Z,100777.17
2018-11-22T18:28:00.506Z,100778.42
2018-11-22T18:30:31.210Z,100787.52
2018-11-22T18:33:01.388Z,100783.45
2018-11-22T18:35:30.020Z,100784.42
2018-11-22T18:37:58.751Z,100777.66
2018-11-22T18:40:28.792Z,100778.84
2018-11-22T18:42:58.483Z,100785.56
2018-11-22T18:45:33.447Z,100781.50
2018-11-22T18:48:03.168Z,100784.66
2018-11-22T18:50:32.760Z,100788.67
2018-11-22T18:53:01.858Z,100787.49
2018-11-22T18:55:30.482Z,100788.88
2018-11-22T18:57:59.177Z,100781.81
2018-11-22T19:00:31.151Z,100784.45
2018-11-22T19:03:01.304Z,100786.03
2018-11-22T19:05:30.227Z,100787.22
2018-11-22T19:07:59.436Z,100793.45
2018-11-22T19:10:30.269Z,100790.13
2018-11-22T19:13:00.368Z,100797.69
2018-11-22T19:15:30.539Z,100795.05
2018-11-22T19:17:59.204Z,100796.30
2018-11-22T19:20:32.123Z,100793.78
2018-11-22T19:23:01.526Z,100792.88
2018-11-22T19:25:30.434Z,100801.06
2018-11-22T19:28:00.031Z,100800.37
2018-11-22T19:30:37.392Z,100802.94
2018-11-22T19:33:03.370Z,100807.70
2018-11-22T19:35:33.703Z,100808.53
2018-11-22T19:38:02.339Z,100804.19
2018-11-22T19:40:33.129Z,100801.55
2018-11-22T19:43:03.323Z,100799.40
2018-11-22T19:45:34.647Z,100794.06
2018-11-22T19:48:03.212Z,100799.82
2018-11-22T19:50:32.383Z,100794.79
2018-11-22T19:53:02.215Z,100796.59
2018-11-22T19:55:31.970Z,100800.44
2018-11-22T19:58:01.924Z,100795.17
2018-11-22T20:00:31.309Z,100792.85
2018-11-22T20:03:01.254Z,100802.42
2018-11-22T20:05:31.198Z,100797.42
2018-11-22T20:08:01.243Z,100794.03
2018-11-22T20:10:31.955Z,100800.79
2018-11-22T20:13:01.434Z,100801.76
2018-11-22T20:15:30.232Z,100808.14
2018-11-22T20:17:59.558Z,100805.72
2018-11-22T20:20:28.371Z,100809.84
2018-11-22T20:22:57.344Z,100806.95
2018-11-22T20:25:26.155Z,100812.92
2018-11-22T20:27:56.324Z,100810.59
2018-11-22T20:30:29.987Z,100817.39
2018-11-22T20:32:58.646Z,100805.39
2018-11-22T20:35:27.876Z,100802.52
2018-11-22T20:37:56.571Z,100806.13
2018-11-22T20:40:34.766Z,100803.91
2018-11-22T20:43:03.725Z,100809.19
2018-11-22T20:45:33.244Z,100805.58
2018-11-22T20:48:05.274Z,100809.64
2018-11-22T20:50:34.292Z,100803.97
2018-11-22T20:53:02.907Z,100802.52
2018-11-22T20:55:34.016Z,100805.67
2018-11-22T20:58:03.943Z,100806.85
2018-11-22T21:00:34.321Z,100806.29
2018-11-22T21:03:03.097Z,100801.02
2018-11-22T21:05:32.243Z,100796.82
2018-11-22T21:08:02.737Z,100804.84
2018-11-22T21:10:32.618Z,100809.11
2018-11-22T21:13:05.696Z,100810.29
2018-11-22T21:15:35.067Z,100809.25
2018-11-22T21:18:06.438Z,100807.44
2018-11-22T21:20:36.791Z,100806.85
2018-11-22T21:23:06.234Z,100809.55
2018-11-22T21:25:35.208Z,100806.53
2018-11-22T21:28:03.978Z,100805.21
2018-11-22T21:30:34.913Z,100808.92
2018-11-22T21:33:04.051Z,100804.48
2018-11-22T21:35:33.261Z,100810.24
2018-11-22T21:38:03.079Z,100812.26
2018-11-22T21:40:32.698Z,100810.32
2018-11-22T21:43:01.311Z,100815.11
2018-11-22T21:45:30.772Z,100813.71
2018-11-22T21:47:59.635Z,100810.59
2018-11-22T21:50:29.105Z,100808.81
2018-11-22T21:52:57.993Z,100810.05
2018-11-22T21:55:27.967Z,100812.93
2018-11-22T21:57:57.837Z,100808.12
2018-11-22T22:00:31.626Z,100811.91
2018-11-22T22:03:03.445Z,100811.21
2018-11-22T22:05:32.847Z,100812.28
2018-11-22T22:08:01.700Z,100803.41
2018-11-22T22:10:30.854Z,100804.52
2018-11-22T22:12:59.970Z,100803.47
2018-11-22T22:15:30.788Z,100802.58
2018-11-22T22:17:59.751Z,100805.83
2018-11-22T22:20:30.473Z,100804.65
2018-11-22T22:22:59.874Z,100799.52
2018-11-22T22:25:29.337Z,100801.18
2018-11-22T22:27:58.884Z,100800.34
2018-11-22T22:30:29.178Z,100799.45
2018-11-22T22:32:59.647Z,100805.13
2018-11-22T22:35:28.889Z,100807.26
2018-11-22T22:37:57.589Z,100801.26
2018-11-22T22:40:27.593Z,100807.56
2018-11-22T22:42:57.427Z,100811.99
2018-11-22T22:45:27.021Z,100806.72
2018-11-22T22:47:55.751Z,100810.08
2018-11-22T22:50:26.734Z,100805.64
2018-11-22T22:52:57.204Z,100806.96
2018-11-22T22:55:25.982Z,100808.06
2018-11-22T22:57:54.532Z,100811.99
2018-11-22T23:00:30.127Z,100807.91
2018-11-22T23:03:01.027Z,100807.85
2018-11-22T23:05:30.242Z,100806.72
2018-11-22T23:07:58.874Z,100810.48
2018-11-22T23:10:27.630Z,100804.03
2018-11-22T23:12:56.913Z,100807.66
2018-11-22T23:15:26.562Z,100802.53
2018-11-22T23:17:55.512Z,100808.73
2018-11-22T23:20:25.598Z,100812.83
2018-11-22T23:22:54.411Z,100806.10
2018-11-22T23:25:23.964Z,100809.59
2018-11-22T23:39:14.428Z,100802.16
2018-11-22T23:41:42.940Z,100799.24
2018-11-22T23:44:11.324Z,100802.84
2018-11-22T23:46:39.759Z,100796.28
2018-11-22T23:49:08.179Z,100797.44
2018-11-22T23:51:36.671Z,100799.73
2018-11-22T23:54:05.142Z,100797.58
2018-11-22T23:56:33.513Z,100800.21
2018-11-22T23:59:01.879Z,100797.50
